Time;durP1;ratioP1;P1;durP2;ratioP2;P2;SDS_P1;SDS_P2;PMS_P1;PMS_P2;Temp;Humidity;BMP_temperature;BMP_pressure;BME280_temperature;BME280_humidity;BME280_pressure;Samples;Min_cycle;Max_cycle;Signal;HPM_P1;HPM_P2
2023/04/03 00:00:11;;;;;;;5.25;2.50;;;3.30;99.90;;;;;;5043197;28;20204;-71
2023/04/03 00:02:38;;;;;;;8.77;2.17;;;3.20;99.90;;;;;;5040707;28;20280;-71
2023/04/03 00:05:05;;;;;;;4.63;1.88;;;3.20;99.90;;;;;;5039467;28;20206;-70
2023/04/03 00:07:32;;;;;;;11.57;2.63;;;3.20;99.90;;;;;;5035354;28;20211;-70
2023/04/03 00:10:02;;;;;;;11.77;2.65;;;3.20;99.90;;;;;;5038257;28;20223;-71
2023/04/03 00:12:29;;;;;;;3.53;2.28;;;3.20;99.90;;;;;;5035947;28;20232;-70
2023/04/03 00:14:55;;;;;;;3.38;2.17;;;3.20;99.90;;;;;;5039779;28;20259;-71
2023/04/03 00:17:22;;;;;;;4.13;1.88;;;3.20;99.90;;;;;;5047327;28;20204;-71
2023/04/03 00:19:49;;;;;;;4.32;2.55;;;3.10;99.90;;;;;;5043134;28;20242;-71
2023/04/03 00:22:16;;;;;;;10.23;2.65;;;3.20;99.90;;;;;;5052726;28;20298;-70
2023/04/03 00:24:44;;;;;;;6.05;2.67;;;3.10;99.90;;;;;;5046381;28;20238;-71
2023/04/03 00:27:12;;;;;;;7.18;3.22;;;3.20;99.90;;;;;;5048127;28;20600;-71
2023/04/03 00:29:39;;;;;;;9.88;2.15;;;3.10;99.90;;;;;;5044195;28;20303;-71
2023/04/03 00:32:06;;;;;;;7.88;2.88;;;3.10;99.90;;;;;;5048474;28;20242;-71
2023/04/03 00:34:33;;;;;;;5.10;2.00;;;3.10;99.90;;;;;;5037107;28;20233;-71
2023/04/03 00:37:00;;;;;;;7.53;2.47;;;3.10;99.90;;;;;;5051253;28;20195;-71
2023/04/03 00:39:27;;;;;;;5.63;2.28;;;3.10;99.90;;;;;;5044230;28;20219;-71
2023/04/03 00:41:54;;;;;;;7.78;2.25;;;3.00;99.90;;;;;;5044607;28;20401;-70
2023/04/03 00:45:02;;;;;;;3.75;2.50;;;3.10;99.90;;;;;;5038270;28;20286;-70
2023/04/03 00:47:32;;;;;;;5.13;2.00;;;3.10;99.90;;;;;;5025620;28;20227;-70
2023/04/03 00:49:59;;;;;;;7.70;2.20;;;3.10;99.90;;;;;;5036384;28;20204;-71
2023/04/03 00:52:30;;;;;;;6.68;2.42;;;3.10;99.90;;;;;;5038764;28;20224;-70
2023/04/03 00:55:01;;;;;;;4.45;2.03;;;3.10;99.90;;;;;;5036274;28;20215;-71
2023/04/03 00:57:28;;;;;;;8.73;2.00;;;3.10;99.90;;;;;;5040656;28;20549;-71
2023/04/03 01:00:01;;;;;;;6.60;2.60;;;3.10;99.90;;;;;;5034915;28;20219;-72
2023/04/03 01:02:28;;;;;;;5.00;3.13;;;3.10;99.90;;;;;;5038072;28;20226;-70
2023/04/03 01:04:56;;;;;;;9.52;2.63;;;3.20;99.90;;;;;;5040634;28;20231;-70
2023/04/03 01:07:27;;;;;;;10.73;2.63;;;3.20;99.90;;;;;;5043702;28;20283;-71
2023/04/03 01:09:57;;;;;;;2.70;1.98;;;3.10;99.90;;;;;;5042527;28;20195;-71
2023/04/03 01:12:27;;;;;;;7.65;2.50;;;3.20;99.90;;;;;;5035078;28;20259;-70
2023/04/03 01:14:56;;;;;;;3.92;2.45;;;3.10;99.90;;;;;;5036200;28;20687;-71
2023/04/03 01:17:28;;;;;;;4.72;2.72;;;3.00;99.90;;;;;;5037379;28;20208;-70
2023/04/03 01:20:21;;;;;;;5.32;2.95;;;3.00;99.90;;;;;;5022213;28;20666;-70
2023/04/03 01:22:55;;;;;;;5.78;3.45;;;2.90;99.90;;;;;;5030449;28;20251;-68
2023/04/03 01:25:22;;;;;;;7.53;2.80;;;2.90;99.90;;;;;;5040463;28;20552;-71
2023/04/03 01:27:49;;;;;;;4.85;2.65;;;2.90;99.90;;;;;;5043644;28;20202;-71
2023/04/03 01:30:19;;;;;;;3.80;2.70;;;2.80;99.90;;;;;;5040086;28;20238;-70
2023/04/03 01:32:48;;;;;;;4.80;2.60;;;2.80;99.90;;;;;;5048205;28;20576;-71
2023/04/03 01:35:15;;;;;;;6.25;2.90;;;2.90;99.90;;;;;;5048576;28;20211;-70
2023/04/03 01:37:41;;;;;;;3.70;2.45;;;2.80;99.90;;;;;;5048386;28;20571;-70
2023/04/03 01:40:09;;;;;;;7.28;2.53;;;2.80;99.90;;;;;;5038592;28;20206;-70
2023/04/03 01:42:36;;;;;;;9.68;4.50;;;2.70;99.90;;;;;;5043165;28;20231;-70
2023/04/03 01:45:04;;;;;;;9.98;2.25;;;2.70;99.90;;;;;;5043872;28;20569;-70
2023/04/03 01:47:31;;;;;;;10.85;2.75;;;2.60;99.90;;;;;;5040325;28;20198;-70
2023/04/03 01:49:59;;;;;;;5.32;2.78;;;2.60;99.90;;;;;;5043226;28;20206;-70
2023/04/03 01:52:26;;;;;;;11.18;3.10;;;2.60;99.90;;;;;;5038699;28;20223;-70
2023/04/03 01:54:53;;;;;;;6.80;3.38;;;2.60;99.90;;;;;;5036975;28;20307;-69
2023/04/03 01:57:19;;;;;;;8.93;2.88;;;2.60;99.90;;;;;;5045166;28;20286;-69
2023/04/03 01:59:46;;;;;;;7.35;3.35;;;2.60;99.90;;;;;;5052078;28;20199;-72
2023/04/03 02:02:14;;;;;;;2.85;2.20;;;2.60;99.90;;;;;;5056890;28;20224;-69
2023/04/03 02:04:41;;;;;;;6.03;2.97;;;2.50;99.90;;;;;;5061437;28;20204;-69
2023/04/03 02:07:09;;;;;;;6.18;2.63;;;2.50;99.90;;;;;;5059325;28;20294;-70
2023/04/03 02:09:37;;;;;;;10.13;3.28;;;2.50;99.90;;;;;;5053802;28;20631;-71
2023/04/03 02:12:04;;;;;;;5.40;2.88;;;2.50;99.90;;;;;;5045889;28;20206;-71
2023/04/03 02:14:31;;;;;;;6.38;2.70;;;2.50;99.90;;;;;;5043620;28;20222;-71
2023/04/03 02:16:58;;;;;;;6.10;2.40;;;2.50;99.90;;;;;;5048935;28;20234;-72
2023/04/03 02:19:27;;;;;;;6.75;2.60;;;2.50;99.90;;;;;;5048705;28;20226;-70
2023/04/03 02:21:54;;;;;;;4.45;2.70;;;2.50;99.90;;;;;;5055023;28;20261;-71
2023/04/03 02:24:23;;;;;;;10.88;2.92;;;2.50;99.90;;;;;;5052878;28;20239;-70
2023/04/03 02:26:50;;;;;;;6.97;2.65;;;2.50;99.90;;;;;;5051835;28;20253;-71
2023/04/03 02:29:18;;;;;;;3.05;2.65;;;2.50;99.90;;;;;;5054750;28;20217;-70
2023/04/03 02:31:45;;;;;;;4.90;2.63;;;2.50;99.90;;;;;;5048450;28;20677;-71
2023/04/03 02:34:12;;;;;;;5.28;2.65;;;2.50;99.90;;;;;;5038874;28;20224;-70
2023/04/03 02:36:40;;;;;;;6.97;2.70;;;2.40;99.90;;;;;;5053245;28;20291;-70
2023/04/03 02:39:07;;;;;;;6.80;4.22;;;2.30;99.90;;;;;;5054827;28;20223;-70
2023/04/03 02:41:35;;;;;;;6.30;2.50;;;2.30;99.90;;;;;;5050521;28;20293;-70
2023/04/03 02:44:02;;;;;;;3.88;1.92;;;2.20;99.90;;;;;;5041737;28;20259;-71
2023/04/03 02:46:29;;;;;;;7.95;2.88;;;2.20;99.90;;;;;;5043230;28;20285;-70
2023/04/03 02:48:56;;;;;;;3.53;2.35;;;2.30;99.90;;;;;;5046604;28;20246;-70
2023/04/03 02:51:23;;;;;;;8.13;2.50;;;2.20;99.90;;;;;;5039649;28;20722;-71
2023/04/03 02:53:51;;;;;;;5.03;3.10;;;2.20;99.90;;;;;;5041766;28;20588;-70
2023/04/03 02:56:20;;;;;;;5.85;2.80;;;2.20;99.90;;;;;;5047657;28;20224;-71
2023/04/03 02:58:48;;;;;;;5.30;3.10;;;2.30;99.90;;;;;;5040076;28;20214;-71
2023/04/03 03:01:16;;;;;;;3.13;2.22;;;2.20;99.90;;;;;;5046309;28;20318;-71
2023/04/03 03:03:43;;;;;;;3.00;2.33;;;2.20;99.90;;;;;;5045221;28;20318;-70
2023/04/03 03:06:13;;;;;;;3.40;2.38;;;2.10;99.90;;;;;;5046943;28;20199;-71
2023/04/03 03:08:40;;;;;;;5.32;2.53;;;2.10;99.90;;;;;;5045579;28;20294;-70
2023/04/03 03:11:07;;;;;;;3.45;1.70;;;2.10;99.90;;;;;;5040636;28;20227;-71
2023/04/03 03:13:35;;;;;;;6.88;2.35;;;2.10;99.90;;;;;;5053068;28;20233;-71
2023/04/03 03:16:04;;;;;;;3.95;1.80;;;2.10;99.90;;;;;;5053720;28;20227;-71
2023/04/03 03:18:31;;;;;;;7.40;2.40;;;2.00;99.90;;;;;;5050000;28;20558;-71
2023/04/03 03:20:59;;;;;;;7.18;2.53;;;2.10;99.90;;;;;;5053255;28;20577;-71
2023/04/03 03:23:28;;;;;;;5.00;2.20;;;2.10;99.90;;;;;;5052445;28;20242;-70
2023/04/03 03:25:57;;;;;;;6.53;2.80;;;2.10;99.90;;;;;;5045895;28;20563;-71
2023/04/03 03:28:24;;;;;;;5.00;2.25;;;2.10;99.90;;;;;;5054260;28;20208;-71
2023/04/03 03:30:51;;;;;;;13.80;3.35;;;2.10;99.90;;;;;;5041016;28;20255;-71
2023/04/03 03:33:20;;;;;;;7.63;2.95;;;2.10;99.90;;;;;;5050386;28;20223;-71
2023/04/03 03:35:46;;;;;;;3.55;2.65;;;2.10;99.90;;;;;;5044953;28;20701;-71
2023/04/03 03:38:14;;;;;;;5.97;2.90;;;2.00;99.90;;;;;;5049564;28;20279;-71
2023/04/03 03:40:41;;;;;;;5.35;2.47;;;2.00;99.90;;;;;;5039657;28;20677;-70
2023/04/03 03:43:08;;;;;;;5.47;2.05;;;2.00;99.90;;;;;;5046623;28;20219;-70
2023/04/03 03:45:35;;;;;;;7.20;2.33;;;2.00;99.90;;;;;;5040466;28;20206;-71
2023/04/03 03:48:02;;;;;;;9.38;2.63;;;2.00;99.90;;;;;;5043434;28;20291;-71
2023/04/03 03:50:31;;;;;;;4.30;3.03;;;1.90;99.90;;;;;;5047654;28;20227;-71
2023/04/03 03:52:58;;;;;;;7.50;2.67;;;1.90;99.90;;;;;;5039482;28;20303;-70
2023/04/03 03:55:24;;;;;;;3.00;2.20;;;1.90;99.90;;;;;;5044266;28;20263;-71
2023/04/03 03:57:51;;;;;;;10.50;2.47;;;1.90;99.90;;;;;;5038814;28;20659;-70
2023/04/03 04:00:19;;;;;;;5.15;2.85;;;1.90;99.90;;;;;;5042000;28;20282;-70
2023/04/03 04:02:46;;;;;;;3.65;1.85;;;1.90;99.90;;;;;;5047749;28;20302;-70
2023/04/03 04:05:13;;;;;;;3.97;2.58;;;1.90;99.90;;;;;;5045357;28;20283;-71
2023/04/03 04:07:41;;;;;;;4.05;2.60;;;1.90;99.90;;;;;;5043992;28;20282;-70
2023/04/03 04:10:09;;;;;;;6.65;2.70;;;1.90;99.90;;;;;;5038612;28;20203;-70
2023/04/03 04:12:36;;;;;;;5.88;2.72;;;1.90;99.90;;;;;;5037133;28;20322;-70
2023/04/03 04:15:04;;;;;;;7.95;2.75;;;1.90;99.90;;;;;;5036205;28;20216;-70
2023/04/03 04:17:31;;;;;;;4.25;2.65;;;1.90;99.90;;;;;;5040441;28;20295;-71
2023/04/03 04:19:59;;;;;;;5.32;2.63;;;1.90;99.90;;;;;;5039333;28;20196;-70
2023/04/03 04:22:26;;;;;;;11.02;2.30;;;1.90;99.90;;;;;;5035789;28;20230;-71
2023/04/03 04:24:54;;;;;;;7.07;2.45;;;1.90;99.90;;;;;;5041814;28;20286;-71
2023/04/03 04:27:21;;;;;;;12.10;2.53;;;1.90;99.90;;;;;;5041821;28;20205;-71
2023/04/03 04:29:48;;;;;;;10.35;2.38;;;1.90;99.90;;;;;;5051882;28;20845;-71
2023/04/03 04:32:15;;;;;;;5.95;2.75;;;2.00;99.90;;;;;;5043519;28;20600;-71
2023/04/03 04:34:42;;;;;;;8.10;3.10;;;1.90;99.90;;;;;;5038244;28;20361;-71
2023/04/03 04:37:09;;;;;;;5.15;3.03;;;1.90;99.90;;;;;;5041005;28;20230;-71
2023/04/03 04:39:36;;;;;;;14.13;3.33;;;1.90;99.90;;;;;;5039061;28;20250;-71
2023/04/03 04:42:04;;;;;;;12.98;3.83;;;1.80;99.90;;;;;;5052672;28;20590;-70
2023/04/03 04:44:31;;;;;;;8.70;3.13;;;1.80;99.90;;;;;;5038749;28;20196;-71
2023/04/03 04:46:58;;;;;;;7.00;3.78;;;1.90;99.90;;;;;;5047781;28;20200;-70
2023/04/03 04:49:25;;;;;;;5.05;2.45;;;1.90;99.90;;;;;;5043137;28;20279;-69
2023/04/03 04:51:52;;;;;;;8.48;2.70;;;1.90;99.90;;;;;;5038952;28;20196;-71
2023/04/03 04:54:19;;;;;;;6.93;2.83;;;1.90;99.90;;;;;;5048456;28;20241;-70
2023/04/03 04:56:46;;;;;;;10.18;4.28;;;1.90;99.90;;;;;;5044659;28;20221;-70
2023/04/03 04:59:14;;;;;;;9.95;3.90;;;2.00;99.90;;;;;;5043360;28;20196;-71
2023/04/03 05:01:41;;;;;;;7.55;3.38;;;2.00;99.90;;;;;;5051560;28;20207;-72
2023/04/03 05:04:09;;;;;;;9.07;2.80;;;2.10;99.90;;;;;;5041207;28;20301;-71
2023/04/03 05:06:36;;;;;;;8.75;3.63;;;2.00;99.90;;;;;;5047281;28;20572;-71
2023/04/03 05:09:03;;;;;;;8.70;3.00;;;2.10;99.90;;;;;;5040009;28;20557;-72
2023/04/03 05:11:30;;;;;;;8.73;5.63;;;2.10;99.90;;;;;;5038916;28;20191;-70
2023/04/03 05:13:57;;;;;;;10.55;3.70;;;2.00;99.90;;;;;;5041519;28;20224;-70
2023/04/03 05:16:26;;;;;;;6.45;4.03;;;2.10;99.90;;;;;;5043314;28;20216;-71
2023/04/03 05:18:53;;;;;;;9.20;4.85;;;2.10;99.90;;;;;;5040207;28;20602;-70
2023/04/03 05:21:21;;;;;;;9.73;3.58;;;2.20;99.90;;;;;;5036900;28;20202;-70
2023/04/03 05:23:48;;;;;;;5.35;3.38;;;2.20;99.90;;;;;;5038558;28;20231;-70
2023/04/03 05:26:15;;;;;;;7.93;3.13;;;2.20;99.90;;;;;;5038386;28;20286;-71
2023/04/03 05:28:42;;;;;;;6.35;3.10;;;2.30;99.90;;;;;;5040932;28;20566;-71
2023/04/03 05:31:09;;;;;;;7.22;3.83;;;2.20;99.90;;;;;;5042383;28;20215;-70
2023/04/03 05:33:37;;;;;;;5.47;3.85;;;2.30;99.90;;;;;;5041451;28;20702;-71
2023/04/03 05:36:05;;;;;;;7.35;3.20;;;2.40;99.90;;;;;;5034458;28;20212;-71
2023/04/03 05:38:32;;;;;;;4.50;3.00;;;2.30;99.90;;;;;;5044413;28;20214;-69
2023/04/03 05:40:59;;;;;;;7.15;3.38;;;2.40;99.90;;;;;;5045306;28;20202;-70
2023/04/03 05:43:26;;;;;;;5.93;3.38;;;2.40;99.90;;;;;;5042317;28;20226;-70
2023/04/03 05:45:53;;;;;;;10.52;3.80;;;2.50;99.90;;;;;;5044438;28;20613;-70
2023/04/03 05:48:20;;;;;;;9.82;2.95;;;2.60;99.90;;;;;;5049204;28;20313;-71
2023/04/03 05:50:49;;;;;;;12.07;3.55;;;2.90;99.90;;;;;;5041834;28;20210;-70
2023/04/03 05:53:22;;;;;;;13.77;3.92;;;2.90;99.90;;;;;;5045202;28;20273;-70
2023/04/03 05:55:50;;;;;;;6.70;2.50;;;3.10;99.90;;;;;;5051625;28;20291;-70
2023/04/03 05:58:16;;;;;;;8.15;2.70;;;3.40;99.90;;;;;;5046745;28;20282;-71
2023/04/03 06:00:43;;;;;;;10.57;3.15;;;3.70;99.90;;;;;;5050113;28;20286;-71
2023/04/03 06:03:10;;;;;;;5.95;2.33;;;4.60;99.90;;;;;;5045020;28;20566;-71
2023/04/03 06:05:37;;;;;;;5.68;2.22;;;5.60;99.90;;;;;;5046440;28;20202;-70
2023/04/03 06:08:06;;;;;;;7.88;2.20;;;6.70;99.90;;;;;;5056221;28;20203;-71
2023/04/03 06:10:33;;;;;;;11.55;3.00;;;7.90;99.90;;;;;;5048172;28;20266;-73
2023/04/03 06:13:00;;;;;;;7.50;2.75;;;9.10;99.90;;;;;;5049830;28;20231;-72
2023/04/03 06:15:28;;;;;;;9.07;2.95;;;10.10;98.80;;;;;;5046702;28;20217;-71
2023/04/03 06:17:55;;;;;;;6.28;2.50;;;10.90;94.30;;;;;;5044858;28;20202;-71
2023/04/03 06:20:22;;;;;;;5.43;2.30;;;11.60;92.30;;;;;;5044808;28;20629;-70
2023/04/03 06:22:49;;;;;;;6.00;2.30;;;12.40;89.80;;;;;;5046833;28;20266;-70
2023/04/03 06:25:18;;;;;;;5.50;2.60;;;12.90;86.90;;;;;;5043019;28;20235;-70
2023/04/03 06:27:45;;;;;;;4.18;2.20;;;13.50;84.70;;;;;;5043672;28;20204;-71
2023/04/03 06:30:13;;;;;;;3.70;2.05;;;13.80;81.20;;;;;;5042631;28;20625;-71
2023/04/03 06:32:40;;;;;;;7.43;2.40;;;14.10;81.10;;;;;;5046438;28;20322;-72
2023/04/03 06:35:08;;;;;;;5.70;1.90;;;14.60;79.40;;;;;;5042171;28;20200;-69
2023/04/03 06:37:35;;;;;;;5.97;2.07;;;15.10;78.70;;;;;;5044454;28;20268;-69
2023/04/03 06:40:02;;;;;;;5.50;2.20;;;15.70;75.70;;;;;;5044403;28;20466;-70
2023/04/03 06:42:31;;;;;;;5.20;2.30;;;15.90;74.90;;;;;;5042956;28;20492;-73
2023/04/03 06:44:58;;;;;;;4.73;1.90;;;16.30;73.50;;;;;;5041644;28;20470;-74
2023/04/03 06:47:26;;;;;;;5.60;2.40;;;16.90;72.60;;;;;;5049979;28;20542;-73
2023/04/03 06:49:53;;;;;;;5.33;2.60;;;16.30;70.80;;;;;;5040286;28;20928;-71
2023/04/03 06:52:20;;;;;;;12.93;2.40;;;16.50;71.20;;;;;;5041774;28;20550;-74
2023/04/03 06:54:47;;;;;;;5.03;1.90;;;16.90;71.00;;;;;;5051897;28;20804;-74
2023/04/03 06:57:15;;;;;;;4.10;2.50;;;17.20;70.00;;;;;;5046375;28;20484;-75
2023/04/03 06:59:43;;;;;;;3.13;1.70;;;16.90;68.30;;;;;;5041202;28;20932;-74
2023/04/03 07:02:12;;;;;;;7.50;2.37;;;17.10;68.00;;;;;;5042240;28;20450;-74
2023/04/03 07:04:39;;;;;;;5.57;2.27;;;17.10;67.60;;;;;;5038888;28;20461;-74
2023/04/03 07:07:07;;;;;;;5.27;1.97;;;17.20;67.80;;;;;;5040271;28;20455;-74
2023/04/03 07:09:34;;;;;;;5.10;2.33;;;16.70;67.30;;;;;;5044095;28;21065;-72
2023/04/03 07:12:01;;;;;;;4.37;2.13;;;16.90;67.40;;;;;;5039502;28;20542;-72
2023/04/03 07:14:28;;;;;;;4.03;2.47;;;17.10;66.50;;;;;;5044464;28;20453;-70
2023/04/03 07:16:56;;;;;;;5.70;2.20;;;16.80;66.40;;;;;;5042613;28;20493;-72
2023/04/03 07:19:24;;;;;;;4.70;2.40;;;16.80;67.30;;;;;;5041653;28;20481;-71
2023/04/03 07:21:51;;;;;;;3.77;1.77;;;16.70;67.80;;;;;;5048205;28;20438;-72
2023/04/03 07:24:18;;;;;;;4.10;1.93;;;17.60;65.90;;;;;;5040814;28;20589;-71
2023/04/03 07:26:45;;;;;;;5.63;2.63;;;17.80;64.10;;;;;;5040135;28;20505;-71
2023/04/03 07:29:18;;;;;;;7.13;2.10;;;17.60;64.40;;;;;;5046784;28;20448;-72
2023/04/03 07:32:04;;;;;;;3.70;2.20;;;18.40;63.10;;;;;;4901380;28;4012308;-72
2023/04/03 07:34:42;;;;;;;5.20;1.77;;;18.80;62.60;;;;;;5044148;28;20227;-72
2023/04/03 07:37:22;;;;;;;4.33;1.77;;;18.80;62.50;;;;;;5040250;28;20479;-72
2023/04/03 07:40:15;;;;;;;4.13;1.60;;;18.50;60.40;;;;;;5036051;28;20540;-71
2023/04/03 07:42:46;;;;;;;9.20;2.27;;;18.30;62.00;;;;;;5050260;28;20477;-71
2023/04/03 07:45:27;;;;;;;2.80;1.57;;;18.10;60.50;;;;;;5047306;28;20466;-73
2023/04/03 07:48:17;;;;;;;3.43;1.77;;;18.30;59.10;;;;;;5044662;28;20477;-73
2023/04/03 07:50:56;;;;;;;2.83;1.73;;;17.60;60.10;;;;;;5048920;28;20449;-72
2023/04/03 07:53:32;;;;;;;4.33;1.63;;;17.50;59.70;;;;;;5043006;28;20817;-71
2023/04/03 07:56:05;;;;;;;5.57;1.90;;;17.80;60.10;;;;;;5040686;28;20481;-72
2023/04/03 07:58:34;;;;;;;6.07;1.93;;;18.70;58.90;;;;;;5021497;28;20448;-72
2023/04/03 08:01:06;;;;;;;3.17;1.40;;;18.70;57.70;;;;;;5043959;28;20456;-76
2023/04/03 08:03:43;;;;;;;2.47;1.50;;;17.90;57.40;;;;;;5037214;28;20481;-76
2023/04/03 08:06:14;;;;;;;3.93;1.80;;;18.00;58.50;;;;;;5040506;28;20485;-76
2023/04/03 08:08:44;;;;;;;3.37;1.50;;;18.00;57.70;;;;;;5036461;28;20941;-76
2023/04/03 08:11:20;;;;;;;3.27;1.87;;;17.90;56.90;;;;;;5043676;28;20447;-76
2023/04/03 08:13:49;;;;;;;4.47;1.40;;;18.20;56.70;;;;;;5041705;28;20458;-75
2023/04/03 08:16:30;;;;;;;3.20;1.70;;;18.60;56.50;;;;;;5040371;28;20466;-76
2023/04/03 08:19:08;;;;;;;3.13;1.50;;;18.50;55.60;;;;;;5042671;28;20846;-77
2023/04/03 08:21:41;;;;;;;4.77;1.67;;;18.90;55.00;;;;;;5041650;28;20458;-77
2023/04/03 08:24:17;;;;;;;2.50;1.17;;;19.20;54.40;;;;;;5044543;28;20839;-72
2023/04/03 08:27:11;;;;;;;1.90;1.50;;;18.90;53.90;;;;;;5051958;28;21803;-73
2023/04/03 08:29:44;;;;;;;4.43;2.37;;;18.70;54.00;;;;;;5043394;28;20816;-71
2023/04/03 08:32:29;;;;;;;4.63;2.30;;;19.00;56.70;;;;;;5042115;28;20493;-73
2023/04/03 08:35:01;;;;;;;5.87;2.90;;;19.60;54.30;;;;;;5044757;28;20468;-73
2023/04/03 08:37:34;;;;;;;2.70;1.87;;;19.40;53.80;;;;;;5042857;28;21046;-72
2023/04/03 08:40:11;;;;;;;4.00;1.80;;;19.50;52.00;;;;;;5044457;28;20873;-72
2023/04/03 08:42:49;;;;;;;7.60;2.30;;;19.70;51.60;;;;;;5047387;28;20472;-71
2023/04/03 08:45:21;;;;;;;3.93;1.80;;;19.50;52.50;;;;;;5034976;28;20529;-75
2023/04/03 08:47:56;;;;;;;3.93;1.50;;;20.10;52.40;;;;;;5041471;28;20449;-71
2023/04/03 08:50:29;;;;;;;5.33;1.70;;;19.90;52.00;;;;;;5040854;28;20479;-72
2023/04/03 08:52:59;;;;;;;3.77;2.30;;;20.30;51.50;;;;;;5027007;28;20501;-72
2023/04/03 08:55:28;;;;;;;5.67;3.43;;;20.30;51.20;;;;;;5039372;28;20989;-73
2023/04/03 08:58:01;;;;;;;3.00;1.80;;;20.80;52.50;;;;;;5049554;28;20847;-72
2023/04/03 09:00:35;;;;;;;2.83;1.73;;;20.60;50.90;;;;;;5038308;28;20502;-72
2023/04/03 09:03:02;;;;;;;2.00;1.50;;;20.30;47.00;;;;;;5043075;28;20517;-72
2023/04/03 09:05:40;;;;;;;2.10;1.33;;;20.20;48.70;;;;;;5047332;28;20520;-72
2023/04/03 09:08:16;;;;;;;5.10;2.30;;;21.00;47.70;;;;;;5046587;28;20437;-72
2023/04/03 09:10:43;;;;;;;3.97;3.00;;;20.90;48.30;;;;;;5028591;28;20453;-74
2023/04/03 09:13:22;;;;;;;4.93;2.10;;;20.90;48.00;;;;;;5044390;28;20463;-72
2023/04/03 09:15:49;;;;;;;2.63;1.93;;;21.30;47.70;;;;;;5039175;28;20447;-73
2023/04/03 09:18:22;;;;;;;2.93;2.20;;;21.10;46.50;;;;;;5046819;28;20568;-73
2023/04/03 09:21:02;;;;;;;3.80;1.40;;;21.00;48.50;;;;;;5046902;28;20450;-74
2023/04/03 09:23:33;;;;;;;4.47;2.10;;;21.20;45.80;;;;;;5036913;28;21046;-74
2023/04/03 09:26:06;;;;;;;3.43;2.13;;;21.40;46.50;;;;;;5037663;28;20843;-74
2023/04/03 09:28:38;;;;;;;2.23;1.30;;;21.40;47.50;;;;;;5051323;28;20493;-75
2023/04/03 09:31:17;;;;;;;5.77;2.20;;;21.60;47.40;;;;;;5045273;28;20464;-74
2023/04/03 09:33:46;;;;;;;3.90;1.90;;;21.60;48.90;;;;;;5037373;28;20546;-75
2023/04/03 09:36:35;;;;;;;2.27;1.53;;;21.30;47.30;;;;;;5051403;28;20453;-71
2023/04/03 09:39:07;;;;;;;1.67;1.43;;;21.70;46.10;;;;;;5040323;28;20465;-73
2023/04/03 09:41:34;;;;;;;2.50;1.53;;;21.30;42.40;;;;;;5038879;28;20463;-73
2023/04/03 09:44:02;;;;;;;3.33;1.70;;;20.80;43.00;;;;;;5047210;28;20512;-70
2023/04/03 09:46:34;;;;;;;3.17;1.87;;;20.50;45.10;;;;;;5038711;28;20465;-75
2023/04/03 09:49:03;;;;;;;2.77;1.70;;;20.40;48.10;;;;;;5044773;28;20489;-74
2023/04/03 09:51:32;;;;;;;5.27;1.90;;;20.20;43.90;;;;;;5042407;28;20449;-75
2023/04/03 09:53:59;;;;;;;5.17;2.37;;;19.30;45.20;;;;;;5040371;28;20536;-73
2023/04/03 09:56:28;;;;;;;2.27;1.60;;;18.40;47.00;;;;;;5044387;28;20450;-74
2023/04/03 09:59:15;;;;;;;4.57;1.90;;;18.70;48.20;;;;;;5046071;28;20446;-73
2023/04/03 10:01:44;;;;;;;3.07;2.07;;;19.00;44.90;;;;;;5042624;28;20797;-74
2023/04/03 10:04:14;;;;;;;4.37;1.60;;;18.70;45.60;;;;;;5038458;28;20483;-73
2023/04/03 10:06:46;;;;;;;3.03;1.30;;;18.90;45.30;;;;;;5040275;28;20494;-73
2023/04/03 10:09:21;;;;;;;2.90;2.10;;;18.90;45.90;;;;;;5035657;28;20467;-73
2023/04/03 10:12:04;;;;;;;4.07;2.80;;;19.00;45.30;;;;;;5036166;28;20441;-74
2023/04/03 10:14:31;;;;;;;3.40;2.37;;;18.70;47.60;;;;;;5038570;28;20618;-76
2023/04/03 10:17:11;;;;;;;6.57;4.03;;;18.30;47.90;;;;;;5038238;28;20493;-75
2023/04/03 10:19:43;;;;;;;2.03;1.70;;;18.10;50.00;;;;;;5037860;28;20454;-75
2023/04/03 10:22:31;;;;;;;4.93;1.93;;;18.00;49.00;;;;;;5034959;28;20475;-75
2023/04/03 10:25:05;;;;;;;3.73;1.80;;;18.00;48.10;;;;;;5046688;28;20442;-73
2023/04/03 10:27:45;;;;;;;2.60;2.10;;;17.80;45.50;;;;;;5053118;28;20813;-74
2023/04/03 10:30:34;;;;;;;3.20;1.63;;;17.40;47.60;;;;;;5046785;28;20822;-73
2023/04/03 10:33:11;;;;;;;2.23;1.53;;;17.10;50.00;;;;;;5051713;28;20803;-73
2023/04/03 10:35:45;;;;;;;1.90;1.70;;;17.20;49.70;;;;;;5045185;28;20492;-73
2023/04/03 10:38:21;;;;;;;2.63;2.10;;;17.10;50.30;;;;;;5047748;28;20549;-74
2023/04/03 10:40:56;;;;;;;3.10;1.90;;;17.40;50.60;;;;;;5038312;28;20537;-73
2023/04/03 10:43:31;;;;;;;4.22;2.80;;;17.00;46.70;;;;;;5042820;28;20984;-72
2023/04/03 10:46:03;;;;;;;2.22;1.90;;;16.50;50.70;;;;;;5047149;28;20236;-72
2023/04/03 10:48:48;;;;;;;4.35;2.22;;;15.70;50.60;;;;;;5050656;28;20225;-74
2023/04/03 10:54:06;;;;;;;3.47;2.08;;;14.80;50.80;;;;;;5033611;28;20655;-73
2023/04/03 10:56:38;;;;;;;2.88;1.95;;;14.60;53.00;;;;;;5050119;28;20204;-73
2023/04/03 10:59:18;;;;;;;3.53;1.95;;;14.10;51.60;;;;;;5043276;28;20196;-73
2023/04/03 11:01:49;;;;;;;2.72;2.10;;;13.90;52.60;;;;;;5042931;28;20566;-74
2023/04/03 11:04:19;;;;;;;5.55;1.90;;;13.70;51.70;;;;;;5046806;28;20264;-73
2023/04/03 11:06:49;;;;;;;4.90;2.22;;;13.40;52.40;;;;;;5045341;28;20204;-74
2023/04/03 11:09:23;;;;;;;4.15;2.03;;;13.80;56.60;;;;;;5045274;28;20206;-73
2023/04/03 11:11:54;;;;;;;4.25;2.10;;;14.20;55.70;;;;;;5039665;28;20191;-74
2023/04/03 11:14:27;;;;;;;4.60;2.00;;;14.40;54.60;;;;;;5044808;28;20200;-74
2023/04/03 11:17:03;;;;;;;2.72;2.03;;;14.30;51.90;;;;;;5044956;28;20240;-73
2023/04/03 11:19:36;;;;;;;3.03;2.10;;;14.10;51.20;;;;;;5038861;28;20625;-73
2023/04/03 11:22:10;;;;;;;6.10;2.75;;;14.00;52.00;;;;;;5047810;28;20395;-73
2023/04/03 11:24:41;;;;;;;3.55;2.00;;;13.70;51.50;;;;;;5047239;28;20574;-73
2023/04/03 11:27:18;;;;;;;3.90;2.08;;;13.70;54.70;;;;;;5046646;28;20237;-75
2023/04/03 11:29:48;;;;;;;3.47;1.88;;;13.70;54.30;;;;;;5052203;28;20199;-76
2023/04/03 11:32:41;;;;;;;5.65;2.55;;;13.80;54.60;;;;;;5046763;28;20235;-74
2023/04/03 11:35:09;;;;;;;3.40;2.30;;;13.30;51.90;;;;;;5039415;28;20195;-73
2023/04/03 11:37:40;;;;;;;3.92;2.58;;;13.10;52.80;;;;;;5041462;28;20203;-73
2023/04/03 11:40:22;;;;;;;2.70;2.33;;;12.70;53.80;;;;;;5046620;28;20224;-71
2023/04/03 11:42:52;;;;;;;5.35;1.80;;;12.50;53.60;;;;;;5038253;28;20233;-71
2023/04/03 11:45:35;;;;;;;2.47;2.28;;;12.70;56.30;;;;;;5042971;28;20297;-70
2023/04/03 11:48:04;;;;;;;2.88;1.80;;;12.90;55.10;;;;;;5047269;28;20295;-70
2023/04/03 11:50:40;;;;;;;3.70;2.20;;;12.90;54.40;;;;;;5051005;28;20239;-69
2023/04/03 11:53:36;;;;;;;2.80;2.25;;;12.60;53.00;;;;;;5042656;28;20305;-69
2023/04/03 11:56:25;;;;;;;5.85;2.50;;;12.50;56.80;;;;;;5032351;28;20295;-69
2023/04/03 11:59:18;;;;;;;4.57;2.22;;;12.30;53.70;;;;;;5042763;28;20207;-70
2023/04/03 12:01:47;;;;;;;2.72;2.53;;;12.00;54.20;;;;;;5045592;28;20203;-70
2023/04/03 12:04:16;;;;;;;4.13;2.50;;;12.00;55.00;;;;;;5049459;28;20237;-69
2023/04/03 12:07:02;;;;;;;2.30;2.10;;;11.90;55.80;;;;;;5043624;28;20285;-71
2023/04/03 12:09:58;;;;;;;2.15;2.00;;;11.70;55.80;;;;;;5037625;28;20225;-72
2023/04/03 12:12:56;;;;;;;1.90;1.80;;;12.10;56.30;;;;;;5040452;28;20234;-70
2023/04/03 12:15:47;;;;;;;2.83;2.53;;;12.00;55.70;;;;;;5045358;28;20206;-70
2023/04/03 12:18:50;;;;;;;4.88;2.60;;;11.90;55.70;;;;;;5044537;28;20190;-71
2023/04/03 12:21:19;;;;;;;7.47;2.75;;;11.60;55.40;;;;;;5046518;28;20202;-71
2023/04/03 12:24:04;;;;;;;3.53;2.80;;;11.30;56.40;;;;;;5045598;28;20567;-74
2023/04/03 12:26:41;;;;;;;2.75;2.30;;;11.20;56.80;;;;;;5038552;28;20319;-70
2023/04/03 12:29:21;;;;;;;5.78;3.15;;;11.20;57.10;;;;;;5029785;28;20302;-70
2023/04/03 12:32:02;;;;;;;3.33;2.65;;;11.20;57.40;;;;;;5049930;28;20261;-68
2023/04/03 12:34:45;;;;;;;2.63;2.30;;;11.40;57.90;;;;;;5045046;28;20203;-71
2023/04/03 12:37:24;;;;;;;2.95;2.72;;;11.40;58.60;;;;;;5042204;28;20197;-69
2023/04/03 12:40:01;;;;;;;2.53;2.17;;;11.60;58.80;;;;;;5039424;28;20309;-70
2023/04/03 12:42:56;;;;;;;5.68;2.53;;;11.70;57.50;;;;;;5043318;28;20218;-69
2023/04/03 12:45:26;;;;;;;3.35;2.45;;;11.70;57.20;;;;;;5038955;28;20207;-70
2023/04/03 12:47:55;;;;;;;4.93;2.50;;;11.80;57.80;;;;;;5046621;28;20245;-69
2023/04/03 12:50:26;;;;;;;4.55;2.75;;;11.80;57.40;;;;;;5048870;28;20223;-70
2023/04/03 12:52:58;;;;;;;5.95;3.28;;;11.80;57.80;;;;;;5034619;28;20299;-70
2023/04/03 12:55:26;;;;;;;6.00;2.45;;;11.60;57.90;;;;;;5042866;28;20202;-73
2023/04/03 12:57:53;;;;;;;2.53;2.33;;;11.80;59.00;;;;;;5044419;28;20199;-72
2023/04/03 13:00:28;;;;;;;6.78;2.70;;;11.80;58.20;;;;;;5042641;28;20640;-72
2023/04/03 13:02:55;;;;;;;5.60;2.58;;;11.50;58.50;;;;;;5037830;28;20307;-71
2023/04/03 13:05:23;;;;;;;5.40;2.75;;;11.20;59.30;;;;;;5037298;28;20300;-72
2023/04/03 13:07:53;;;;;;;5.95;2.45;;;11.20;59.80;;;;;;5040427;28;20277;-70
2023/04/03 13:10:21;;;;;;;3.10;2.33;;;11.10;60.60;;;;;;5035380;28;20202;-70
2023/04/03 13:12:50;;;;;;;2.92;2.10;;;11.10;59.80;;;;;;5044059;28;20296;-72